Las Peladas, Argentina
Current Conditions -  °F | °C
As of 12:00 PM on Friday 31 Oct 2014 (Local Time) from SCAT Reporting Station
Few Clouds Few Clouds  
Wind Chill: 63°   Ceiling: Unl
Heat Index: 63°   Visibility: 6mi
Dew Point: 50°   Wind: 8mph
Humidity: 63%   Direction: 270°W
Pressure: 30"   Gusts: NA
Location:  27.04°S, 68.09°W
Report Text: SCAT 311500Z 27007KT 190V320 9999 FEW019 17/10 Q1016
Loading
Personal Weather Stations






























Interactive Weather Map
Tropical Storm Tracking
New forecast layout! Learn more

10-Day Weather Forecast

Advertisements
Track Severe Weather on mobile